Time;durP1;ratioP1;P1;durP2;ratioP2;P2;SDS_P1;SDS_P2;PMS_P1;PMS_P2;Temp;Humidity;BMP_temperature;BMP_pressure;BME280_temperature;BME280_humidity;BME280_pressure;Samples;Min_cycle;Max_cycle;Signal;HPM_P1;HPM_P2
2023/09/27 00:00:09;;;;;;;17.65;13.90;;;;;;;13.91;100.00;101870.28;4981171;28;20220;-42
2023/09/27 00:02:39;;;;;;;15.18;13.88;;;;;;;13.91;100.00;101859.50;4971038;28;20201;-43
2023/09/27 00:05:06;;;;;;;15.98;14.30;;;;;;;13.90;100.00;101868.50;4961289;28;20245;-40
2023/09/27 00:07:36;;;;;;;15.70;14.30;;;;;;;13.85;100.00;101857.88;4972833;28;20184;-42
2023/09/27 00:10:02;;;;;;;16.08;14.50;;;;;;;13.84;100.00;101856.13;4972760;28;20192;-43
2023/09/27 00:12:28;;;;;;;16.20;14.55;;;;;;;13.87;100.00;101837.16;4972729;28;20571;-41
2023/09/27 00:14:55;;;;;;;16.35;14.95;;;;;;;13.84;100.00;101847.16;4984504;28;20327;-41
2023/09/27 00:17:22;;;;;;;16.27;14.77;;;;;;;13.91;100.00;101854.09;4991896;28;20181;-42
2023/09/27 00:19:47;;;;;;;15.55;14.13;;;;;;;13.91;100.00;101876.53;4976001;28;20261;-42
2023/09/27 00:22:13;;;;;;;18.35;14.38;;;;;;;13.89;100.00;101874.84;4985355;28;20336;-42
2023/09/27 00:24:39;;;;;;;16.77;15.23;;;;;;;13.90;100.00;101874.75;4980337;28;20217;-42
2023/09/27 00:27:05;;;;;;;15.30;13.90;;;;;;;13.86;100.00;101873.09;4972612;28;20244;-41
2023/09/27 00:29:30;;;;;;;14.98;13.57;;;;;;;13.86;100.00;101874.91;4972932;28;20170;-41
2023/09/27 00:31:56;;;;;;;14.38;12.98;;;;;;;13.79;100.00;101866.19;4990258;28;20197;-41
2023/09/27 00:34:22;;;;;;;14.30;12.98;;;;;;;13.79;100.00;101863.47;5006667;28;20181;-41
2023/09/27 00:36:49;;;;;;;14.10;12.75;;;;;;;13.70;100.00;101872.75;4988821;28;20182;-41
2023/09/27 00:39:14;;;;;;;14.13;13.02;;;;;;;13.74;100.00;101873.56;4978699;28;20204;-41
2023/09/27 00:41:40;;;;;;;13.68;12.32;;;;;;;13.70;100.00;101862.00;4973834;28;20194;-42
2023/09/27 00:44:05;;;;;;;15.10;13.77;;;;;;;13.74;100.00;101860.09;4977595;28;20285;-41
2023/09/27 00:46:32;;;;;;;16.20;14.23;;;;;;;13.78;100.00;101867.13;4980093;28;20174;-42
2023/09/27 00:48:58;;;;;;;15.02;13.63;;;;;;;13.89;100.00;101875.72;4987283;28;20190;-39
2023/09/27 00:51:26;;;;;;;16.30;14.65;;;;;;;13.90;100.00;101882.84;4970544;28;20182;-40
2023/09/27 00:53:53;;;;;;;16.48;14.77;;;;;;;13.85;100.00;101878.56;4957750;28;20173;-41
2023/09/27 00:56:18;;;;;;;16.38;13.88;;;;;;;13.84;100.00;101885.78;4984667;28;20182;-41
2023/09/27 00:58:44;;;;;;;13.30;12.18;;;;;;;13.86;100.00;101891.09;4979793;28;20201;-42
2023/09/27 01:01:12;;;;;;;15.10;13.45;;;;;;;13.86;100.00;101881.19;4970468;28;20190;-41
2023/09/27 01:03:38;;;;;;;13.82;12.63;;;;;;;13.82;100.00;101866.09;4970486;28;20174;-43
2023/09/27 01:06:04;;;;;;;14.57;13.25;;;;;;;13.75;100.00;101868.13;4971847;28;20224;-41
2023/09/27 01:08:29;;;;;;;14.95;13.50;;;;;;;13.78;100.00;101869.81;4986845;28;20186;-41
2023/09/27 01:10:55;;;;;;;13.43;12.23;;;;;;;13.78;100.00;101876.06;4970321;28;20181;-40
2023/09/27 01:13:21;;;;;;;14.05;12.65;;;;;;;13.75;100.00;101861.81;4972887;28;20217;-41
2023/09/27 01:15:47;;;;;;;14.40;13.10;;;;;;;13.60;100.00;101858.75;4981678;28;20173;-42
2023/09/27 01:18:15;;;;;;;12.90;11.80;;;;;;;13.66;100.00;101857.63;4986186;28;20170;-41
2023/09/27 01:20:40;;;;;;;14.45;12.95;;;;;;;13.62;100.00;101858.66;4980338;28;20188;-41
2023/09/27 01:23:06;;;;;;;12.25;11.15;;;;;;;13.60;100.00;101858.75;4997817;28;20279;-40
2023/09/27 01:25:34;;;;;;;13.27;12.18;;;;;;;13.50;100.00;101857.28;4982729;28;20202;-41
2023/09/27 01:28:04;;;;;;;12.70;11.50;;;;;;;13.49;100.00;101860.94;4972046;28;20237;-43
2023/09/27 01:30:32;;;;;;;13.73;12.43;;;;;;;13.52;100.00;101859.94;4971796;28;20197;-42
2023/09/27 01:33:05;;;;;;;11.88;10.80;;;;;;;13.44;100.00;101862.00;4959546;28;20248;-42
2023/09/27 01:35:36;;;;;;;10.88;9.80;;;;;;;13.37;100.00;101855.94;5006102;28;20189;-43
2023/09/27 01:38:02;;;;;;;11.00;9.93;;;;;;;13.41;100.00;101854.91;4952526;28;20233;-41
2023/09/27 01:40:30;;;;;;;12.27;11.20;;;;;;;13.30;100.00;101844.50;4968051;28;20636;-41
2023/09/27 01:43:00;;;;;;;13.70;12.00;;;;;;;13.18;100.00;101844.88;4974753;28;20302;-40
2023/09/27 01:45:26;;;;;;;12.10;10.90;;;;;;;13.06;100.00;101845.28;4980076;28;20202;-41
2023/09/27 01:47:52;;;;;;;10.85;9.85;;;;;;;13.07;100.00;101842.53;4970318;28;20205;-41
2023/09/27 01:50:23;;;;;;;11.25;10.20;;;;;;;13.13;100.00;101833.38;4958562;28;20563;-42
2023/09/27 01:52:49;;;;;;;12.40;11.32;;;;;;;13.18;100.00;101835.00;4983225;28;20210;-42
2023/09/27 01:55:14;;;;;;;12.60;11.48;;;;;;;13.09;100.00;101837.09;4976834;28;20189;-42
2023/09/27 01:57:40;;;;;;;14.55;13.15;;;;;;;13.12;100.00;101837.91;4958535;28;20205;-43
2023/09/27 02:00:10;;;;;;;12.25;11.15;;;;;;;12.97;100.00;101846.47;4962214;28;20199;-40
2023/09/27 02:02:38;;;;;;;10.80;9.90;;;;;;;12.94;100.00;101841.16;4967813;28;20217;-42
2023/09/27 02:05:04;;;;;;;11.82;10.82;;;;;;;13.00;100.00;101840.97;4985495;28;20193;-41
2023/09/27 02:07:30;;;;;;;10.27;9.48;;;;;;;12.98;100.00;101846.41;4972130;28;20275;-41
2023/09/27 02:09:55;;;;;;;12.55;11.38;;;;;;;12.81;100.00;101859.50;4983972;28;20295;-39
2023/09/27 02:12:21;;;;;;;11.23;10.23;;;;;;;12.80;100.00;101860.44;4994065;28;20209;-43
2023/09/27 02:14:47;;;;;;;9.50;8.73;;;;;;;12.83;100.00;101859.44;5009193;28;20173;-41
2023/09/27 02:17:12;;;;;;;11.68;10.68;;;;;;;12.75;100.00;101865.09;4996760;28;20236;-41
2023/09/27 02:19:37;;;;;;;10.70;9.80;;;;;;;12.75;100.00;101862.41;4974265;28;20189;-41
2023/09/27 02:22:03;;;;;;;11.48;10.48;;;;;;;12.64;100.00;101865.41;4955303;28;20286;-44
2023/09/27 02:24:29;;;;;;;11.82;10.63;;;;;;;12.61;100.00;101857.41;4976868;28;20245;-42
2023/09/27 02:26:54;;;;;;;11.35;10.45;;;;;;;12.59;100.00;101859.28;5005832;28;20403;-41
2023/09/27 02:29:21;;;;;;;12.35;9.80;;;;;;;12.65;100.00;101874.34;4974534;28;20229;-41
2023/09/27 02:31:48;;;;;;;9.63;8.73;;;;;;;12.64;100.00;101876.16;4992156;28;20295;-42
2023/09/27 02:34:13;;;;;;;9.00;8.30;;;;;;;12.61;100.00;101881.63;5006707;28;20189;-43
2023/09/27 02:36:39;;;;;;;11.23;10.23;;;;;;;12.51;100.00;101872.97;4993434;28;20216;-42
2023/09/27 02:39:05;;;;;;;9.50;8.80;;;;;;;12.55;100.00;101879.09;4978618;28;20183;-41
2023/09/27 02:41:30;;;;;;;12.05;10.95;;;;;;;12.44;100.00;101887.50;4959350;28;20190;-41
2023/09/27 02:43:56;;;;;;;12.25;11.07;;;;;;;12.39;100.00;101880.50;4984082;28;20197;-42
2023/09/27 02:46:22;;;;;;;12.52;11.43;;;;;;;12.35;100.00;101879.69;4986771;28;20240;-40
2023/09/27 02:48:49;;;;;;;12.60;11.60;;;;;;;12.21;100.00;101879.22;5008442;28;20173;-40
2023/09/27 02:51:15;;;;;;;12.20;11.10;;;;;;;12.28;100.00;101891.56;4977588;28;20345;-43
2023/09/27 02:53:41;;;;;;;11.23;10.23;;;;;;;12.27;100.00;101888.00;4984979;28;20190;-43
2023/09/27 02:56:07;;;;;;;12.70;11.32;;;;;;;12.17;100.00;101881.09;4973972;28;20240;-41
2023/09/27 02:58:33;;;;;;;12.15;11.15;;;;;;;12.14;100.00;101881.19;4974443;28;20177;-41
2023/09/27 03:00:58;;;;;;;11.35;10.43;;;;;;;12.03;100.00;101884.19;4981566;28;20186;-41
2023/09/27 03:03:24;;;;;;;12.57;11.25;;;;;;;12.01;100.00;101888.72;4978945;28;20201;-41
2023/09/27 03:05:50;;;;;;;11.80;10.80;;;;;;;12.02;100.00;101889.59;4973095;28;20213;-41
2023/09/27 03:08:16;;;;;;;11.30;10.30;;;;;;;12.04;100.00;101887.75;4992420;28;20197;-42
2023/09/27 03:10:42;;;;;;;12.15;10.95;;;;;;;12.09;100.00;101901.91;4984989;28;20666;-43
2023/09/27 03:13:09;;;;;;;12.55;11.45;;;;;;;11.94;100.00;101893.38;4974529;28;20206;-42
2023/09/27 03:15:38;;;;;;;11.40;10.50;;;;;;;11.91;100.00;101900.63;4967277;28;20660;-42
2023/09/27 03:18:04;;;;;;;13.23;11.85;;;;;;;11.85;100.00;101893.59;4991658;28;20205;-42
2023/09/27 03:20:31;;;;;;;12.48;11.48;;;;;;;11.79;100.00;101882.13;5007873;28;20207;-41
2023/09/27 03:22:57;;;;;;;12.93;11.82;;;;;;;11.74;100.00;101883.13;4989474;28;20217;-41
2023/09/27 03:25:22;;;;;;;13.05;11.75;;;;;;;11.73;100.00;101877.78;4973651;28;20210;-41
2023/09/27 03:27:48;;;;;;;11.73;10.52;;;;;;;11.78;100.00;101878.53;4982224;28;20174;-40
2023/09/27 03:30:14;;;;;;;11.82;10.63;;;;;;;11.75;100.00;101878.63;4991828;28;20264;-43
2023/09/27 03:32:40;;;;;;;11.10;10.05;;;;;;;11.81;100.00;101883.84;4987389;28;20284;-41
2023/09/27 03:35:07;;;;;;;12.70;11.50;;;;;;;11.69;100.00;101876.09;4980190;28;20720;-40
2023/09/27 03:37:34;;;;;;;10.80;9.90;;;;;;;11.75;100.00;101882.19;4988323;28;20185;-41
2023/09/27 03:40:01;;;;;;;11.88;10.77;;;;;;;11.68;100.00;101885.97;4977362;28;20269;-42
2023/09/27 03:42:26;;;;;;;11.25;10.10;;;;;;;11.68;100.00;101883.28;4985557;28;20213;-41
2023/09/27 03:44:54;;;;;;;10.98;10.07;;;;;;;11.74;100.00;101888.50;4970126;28;20304;-41
2023/09/27 03:47:20;;;;;;;13.10;11.85;;;;;;;11.62;100.00;101890.59;4972787;28;20186;-43
2023/09/27 03:49:46;;;;;;;13.07;11.88;;;;;;;11.64;100.00;101886.09;4979527;28;20177;-44
2023/09/27 03:52:12;;;;;;;13.98;12.75;;;;;;;11.50;100.00;101876.59;4979696;28;20205;-43
2023/09/27 03:54:37;;;;;;;13.85;12.65;;;;;;;11.42;100.00;101883.06;5000408;28;20178;-41
2023/09/27 03:57:04;;;;;;;13.77;12.57;;;;;;;11.49;100.00;101882.84;4963803;28;20190;-41
2023/09/27 03:59:29;;;;;;;13.13;12.02;;;;;;;11.45;100.00;101889.22;4971894;28;20567;-43
2023/09/27 04:01:55;;;;;;;14.02;12.73;;;;;;;11.49;100.00;101877.50;4979076;28;20214;-41
2023/09/27 04:04:21;;;;;;;13.32;12.23;;;;;;;11.50;100.00;101879.28;4973322;28;20300;-41
2023/09/27 04:06:46;;;;;;;14.65;13.23;;;;;;;11.49;100.00;101890.91;4976273;28;20209;-42
2023/09/27 04:09:12;;;;;;;13.43;12.13;;;;;;;11.44;100.00;101886.59;4972950;28;20577;-42
2023/09/27 04:11:37;;;;;;;13.02;11.88;;;;;;;11.45;100.00;101881.16;4981062;28;20202;-41
2023/09/27 04:14:06;;;;;;;12.48;11.23;;;;;;;11.37;100.00;101882.28;4983199;28;20272;-41
2023/09/27 04:16:32;;;;;;;13.95;12.65;;;;;;;11.43;100.00;101885.69;4991635;28;20193;-43
2023/09/27 04:18:58;;;;;;;14.80;13.50;;;;;;;11.32;100.00;101890.44;4972737;28;20649;-41
2023/09/27 04:21:25;;;;;;;13.00;11.70;;;;;;;11.46;100.00;101891.00;4972742;28;20738;-42
2023/09/27 04:23:57;;;;;;;14.40;13.10;;;;;;;11.37;100.00;101887.66;4972609;28;20197;-43
2023/09/27 04:26:23;;;;;;;12.57;11.27;;;;;;;11.39;100.00;101897.44;4979152;28;20209;-42
2023/09/27 04:28:53;;;;;;;14.38;12.90;;;;;;;11.34;100.00;101897.53;4980153;28;20185;-43
2023/09/27 04:31:19;;;;;;;12.80;11.70;;;;;;;11.35;100.00;101901.13;4980832;28;20243;-41
2023/09/27 04:33:45;;;;;;;14.10;12.90;;;;;;;11.27;100.00;101889.69;4965002;28;20659;-43
2023/09/27 04:36:15;;;;;;;15.82;14.50;;;;;;;11.41;100.00;101890.22;4951885;28;20217;-43
2023/09/27 04:38:45;;;;;;;13.63;12.45;;;;;;;11.30;100.00;101894.97;4967442;28;20256;-40
2023/09/27 04:41:11;;;;;;;13.52;12.18;;;;;;;11.28;100.00;101899.47;4975196;28;20205;-44
2023/09/27 04:43:37;;;;;;;13.98;12.68;;;;;;;11.28;100.00;101902.16;4986754;28;20201;-42
2023/09/27 04:46:02;;;;;;;13.65;12.40;;;;;;;11.27;100.00;101903.09;4971256;28;20220;-43
2023/09/27 04:48:28;;;;;;;13.85;12.65;;;;;;;11.31;100.00;101894.06;4966354;28;20256;-42
2023/09/27 04:50:54;;;;;;;13.48;12.23;;;;;;;11.28;100.00;101904.84;4964246;28;20187;-42
2023/09/27 04:53:19;;;;;;;13.90;12.55;;;;;;;11.27;100.00;101893.25;4972092;28;20213;-42
2023/09/27 04:55:45;;;;;;;15.85;14.43;;;;;;;11.24;100.00;101896.00;4979916;28;20275;-42
2023/09/27 04:58:10;;;;;;;14.80;13.50;;;;;;;11.20;100.00;101890.75;4991589;28;20182;-40
2023/09/27 05:00:36;;;;;;;15.57;14.10;;;;;;;11.22;100.00;101886.25;4991674;28;20212;-43
2023/09/27 05:03:01;;;;;;;16.27;14.63;;;;;;;11.18;100.00;101897.97;4975298;28;20194;-41
2023/09/27 05:05:27;;;;;;;15.10;13.80;;;;;;;11.25;100.00;101889.72;4980588;28;20224;-42
2023/09/27 05:07:52;;;;;;;15.27;13.77;;;;;;;11.23;100.00;101891.53;4973492;28;20192;-43
2023/09/27 05:10:18;;;;;;;16.25;14.85;;;;;;;11.23;100.00;101888.00;4975261;28;20263;-41
2023/09/27 05:12:43;;;;;;;14.48;13.18;;;;;;;11.20;100.00;101897.00;4983706;28;20272;-41
2023/09/27 05:15:09;;;;;;;14.77;13.38;;;;;;;11.21;100.00;101881.78;4960264;28;20197;-44
2023/09/27 05:17:35;;;;;;;15.73;14.32;;;;;;;11.08;100.00;101884.75;4976366;28;20193;-41
2023/09/27 05:20:04;;;;;;;15.15;13.85;;;;;;;11.15;100.00;101882.81;4979113;28;20671;-43
2023/09/27 05:22:30;;;;;;;16.80;15.20;;;;;;;11.19;100.00;101880.94;4972367;28;20210;-42
2023/09/27 05:24:55;;;;;;;18.80;17.20;;;;;;;11.24;100.00;101871.88;4978820;28;20216;-42
2023/09/27 05:27:21;;;;;;;17.58;15.93;;;;;;;11.14;100.00;101878.34;4968992;28;20209;-41
2023/09/27 05:29:47;;;;;;;17.73;16.13;;;;;;;11.19;100.00;101876.44;4959504;28;20210;-41
2023/09/27 05:32:12;;;;;;;20.17;16.73;;;;;;;11.26;100.00;101874.50;4971375;28;20297;-43
2023/09/27 05:34:37;;;;;;;20.35;18.52;;;;;;;11.33;100.00;101868.06;4977859;28;20655;-41
2023/09/27 05:37:03;;;;;;;19.25;17.55;;;;;;;11.39;100.00;101873.31;4973472;28;20236;-43
2023/09/27 05:39:28;;;;;;;21.38;19.38;;;;;;;11.48;100.00;101883.78;4989296;28;20263;-43
2023/09/27 05:41:54;;;;;;;22.70;20.60;;;;;;;11.63;100.00;101884.31;4984529;28;20225;-43
2023/09/27 05:44:20;;;;;;;20.73;18.83;;;;;;;11.62;100.00;101883.44;4979170;28;20549;-41
2023/09/27 05:46:45;;;;;;;18.52;16.85;;;;;;;11.59;100.00;101880.84;4985149;28;20562;-43
2023/09/27 05:49:11;;;;;;;19.25;17.35;;;;;;;11.46;100.00;101888.31;4983662;28;20593;-40
2023/09/27 05:51:37;;;;;;;21.58;19.45;;;;;;;11.51;100.00;101883.69;4969754;28;20571;-42
2023/09/27 05:54:05;;;;;;;20.98;19.05;;;;;;;11.43;100.00;101895.56;4973411;28;20173;-41
2023/09/27 05:56:32;;;;;;;22.00;19.98;;;;;;;11.52;100.00;101890.84;4988107;28;20172;-43
2023/09/27 05:58:59;;;;;;;22.25;19.90;;;;;;;11.54;100.00;101890.78;4985350;28;20186;-41
2023/09/27 06:01:25;;;;;;;20.35;18.50;;;;;;;11.69;100.00;101900.25;4980313;28;20221;-44
2023/09/27 06:03:50;;;;;;;21.40;19.50;;;;;;;11.71;100.00;101901.97;4978144;28;20226;-43
2023/09/27 06:06:16;;;;;;;20.90;18.90;;;;;;;11.78;100.00;101896.47;4985994;28;20312;-43
2023/09/27 06:08:41;;;;;;;21.52;19.50;;;;;;;11.88;100.00;101904.28;4987587;28;20197;-43
2023/09/27 06:11:09;;;;;;;20.88;18.88;;;;;;;11.99;100.00;101903.97;4974005;28;20190;-43
2023/09/27 06:13:35;;;;;;;20.35;18.42;;;;;;;12.04;100.00;101907.41;4970052;28;20609;-41
2023/09/27 06:16:01;;;;;;;17.73;16.02;;;;;;;12.16;100.00;101911.59;4972563;28;20252;-43
2023/09/27 06:18:27;;;;;;;18.73;17.02;;;;;;;12.31;100.00;101911.16;4975108;28;20174;-43
2023/09/27 06:20:52;;;;;;;18.75;16.95;;;;;;;12.48;100.00;101907.97;4982610;28;20223;-43
2023/09/27 06:23:19;;;;;;;18.08;16.50;;;;;;;12.64;100.00;101903.06;4993760;28;20425;-42
2023/09/27 06:25:48;;;;;;;20.35;18.52;;;;;;;12.73;100.00;101910.84;4980480;28;20203;-41
2023/09/27 06:28:13;;;;;;;18.50;16.83;;;;;;;12.84;100.00;101909.66;4973382;28;20675;-41
2023/09/27 06:30:40;;;;;;;21.77;19.58;;;;;;;12.87;100.00;101907.72;4980689;28;20265;-40
2023/09/27 06:33:07;;;;;;;21.38;19.38;;;;;;;12.90;100.00;101920.19;4980902;28;20212;-43
2023/09/27 06:35:33;;;;;;;21.40;19.40;;;;;;;13.06;100.00;101921.50;4970727;28;20190;-44
2023/09/27 06:38:00;;;;;;;21.08;19.17;;;;;;;13.16;100.00;101909.53;4955961;28;20642;-41
2023/09/27 06:40:26;;;;;;;18.02;16.27;;;;;;;13.52;100.00;101920.06;4974152;28;20269;-44
2023/09/27 06:42:52;;;;;;;20.08;18.17;;;;;;;13.79;100.00;101918.22;4958519;28;20256;-43
2023/09/27 06:45:18;;;;;;;19.10;17.10;;;;;;;14.13;100.00;101929.66;4984215;28;20632;-46
2023/09/27 06:47:45;;;;;;;19.75;17.73;;;;;;;14.31;100.00;101925.44;4968398;28;20191;-41
2023/09/27 06:50:15;;;;;;;22.20;19.35;;;;;;;14.52;100.00;101924.66;4973754;28;20171;-42
2023/09/27 06:52:40;;;;;;;20.52;18.63;;;;;;;14.78;100.00;101929.09;4974312;28;20197;-42
2023/09/27 06:55:10;;;;;;;18.63;16.92;;;;;;;14.87;100.00;101937.75;4973761;28;20604;-41
2023/09/27 06:57:37;;;;;;;17.02;15.43;;;;;;;15.02;100.00;101929.06;4973501;28;20201;-42
2023/09/27 07:00:18;;;;;;;15.20;14.00;;;;;;;15.33;100.00;101936.84;4973686;28;20189;-42
2023/09/27 07:02:46;;;;;;;16.70;15.00;;;;;;;15.41;100.00;101934.72;4973982;28;20194;-42
2023/09/27 07:05:11;;;;;;;16.13;14.63;;;;;;;15.57;100.00;101931.38;4973656;28;20221;-44
2023/09/27 07:07:38;;;;;;;14.25;12.90;;;;;;;15.86;100.00;101927.47;4974464;28;20170;-44
2023/09/27 07:10:04;;;;;;;13.50;12.27;;;;;;;16.16;100.00;101929.75;4974414;28;20569;-42
2023/09/27 07:12:30;;;;;;;12.55;11.38;;;;;;;16.35;100.00;101927.13;4973041;28;20660;-43
2023/09/27 07:14:57;;;;;;;15.05;13.55;;;;;;;16.44;100.00;101935.72;4974157;28;20377;-44
2023/09/27 07:17:23;;;;;;;12.48;11.18;;;;;;;16.57;100.00;101918.91;4972851;28;20653;-41
2023/09/27 07:19:51;;;;;;;11.70;10.50;;;;;;;16.72;100.00;101912.78;4974073;28;20170;-43
2023/09/27 07:22:17;;;;;;;11.40;10.05;;;;;;;17.09;100.00;101908.38;4977258;23;20711;-42
2023/09/27 07:24:42;;;;;;;10.93;9.93;;;;;;;17.28;100.00;101909.22;4949748;28;20207;-42
2023/09/27 07:27:08;;;;;;;11.32;10.10;;;;;;;17.47;100.00;101914.63;4948688;28;20195;-41
2023/09/27 07:29:34;;;;;;;11.02;10.00;;;;;;;17.79;100.00;101913.94;4955026;28;20179;-41
2023/09/27 07:31:59;;;;;;;10.65;9.75;;;;;;;17.76;100.00;101914.13;4951012;28;20250;-42
2023/09/27 07:34:25;;;;;;;11.82;9.43;;;;;;;17.89;100.00;101918.84;4946176;28;20575;-41
2023/09/27 07:36:51;;;;;;;10.73;9.82;;;;;;;17.62;100.00;101920.22;4953920;28;20722;-42
2023/09/27 07:39:17;;;;;;;10.00;9.00;;;;;;;17.88;100.00;101914.38;4943960;28;20271;-44
2023/09/27 07:41:44;;;;;;;11.23;8.98;;;;;;;17.85;100.00;101921.81;4951405;28;20210;-42
2023/09/27 07:44:10;;;;;;;10.70;9.73;;;;;;;17.83;100.00;101915.59;4948028;28;20186;-42
2023/09/27 07:46:36;;;;;;;12.60;10.80;;;;;;;17.73;100.00;101923.25;4948736;28;20214;-42
2023/09/27 07:49:03;;;;;;;11.20;9.90;;;;;;;17.97;99.95;101914.84;4952218;28;20195;-41
2023/09/27 07:51:28;;;;;;;11.10;10.10;;;;;;;18.02;98.52;101915.53;4948293;28;20693;-41
2023/09/27 07:53:54;;;;;;;11.02;10.02;;;;;;;18.18;97.25;101907.44;4949254;28;20322;-42
2023/09/27 07:56:28;;;;;;;10.63;9.63;;;;;;;18.42;95.44;101895.28;4948397;28;20207;-42
2023/09/27 07:58:54;;;;;;;10.45;9.35;;;;;;;18.80;94.57;101895.00;4947615;28;20271;-42
2023/09/27 08:01:23;;;;;;;10.43;9.52;;;;;;;19.04;92.68;101908.19;4947327;28;20281;-42
2023/09/27 08:03:53;;;;;;;11.52;9.10;;;;;;;18.95;90.81;101912.28;4946225;28;20210;-42
2023/09/27 08:06:20;;;;;;;9.93;8.90;;;;;;;19.22;90.34;101920.75;4956093;28;20237;-43
2023/09/27 08:08:47;;;;;;;9.90;9.10;;;;;;;19.18;88.49;101911.00;4950688;28;20576;-43
2023/09/27 08:11:13;;;;;;;9.70;8.70;;;;;;;19.06;88.43;101925.28;4945481;28;20678;-43
2023/09/27 08:13:39;;;;;;;12.52;8.73;;;;;;;19.39;87.19;101908.88;4951993;28;20189;-44
2023/09/27 08:16:07;;;;;;;9.82;8.93;;;;;;;19.14;86.22;101909.44;4949061;28;20217;-42
2023/09/27 08:18:34;;;;;;;9.65;8.65;;;;;;;19.37;85.59;101909.94;4951171;28;20278;-43
2023/09/27 08:21:00;;;;;;;9.73;8.70;;;;;;;19.65;85.37;101915.50;4946823;28;20253;-42
2023/09/27 08:23:26;;;;;;;10.02;9.02;;;;;;;19.79;84.70;101916.56;4948950;28;20242;-44
2023/09/27 08:25:55;;;;;;;10.93;8.27;;;;;;;19.44;83.90;101906.78;4946881;28;20264;-44
2023/09/27 08:28:21;;;;;;;8.98;8.18;;;;;;;19.68;83.50;101892.72;4950550;28;20198;-44
2023/09/27 08:30:50;;;;;;;10.07;8.15;;;;;;;20.03;83.13;101896.06;4943130;28;20186;-44
2023/09/27 08:33:16;;;;;;;9.55;8.50;;;;;;;20.00;82.39;101896.22;4950552;28;20293;-42
2023/09/27 08:35:41;;;;;;;9.70;7.78;;;;;;;20.29;81.59;101904.44;4946379;28;20266;-44
2023/09/27 08:38:08;;;;;;;8.38;7.57;;;;;;;20.37;80.86;101880.34;4948747;28;20191;-43
2023/09/27 08:40:34;;;;;;;9.05;7.55;;;;;;;20.43;79.43;101863.63;4943238;28;20653;-42
2023/09/27 08:43:00;;;;;;;10.93;8.25;;;;;;;20.12;78.83;101851.94;4950757;28;20715;-43
2023/09/27 08:45:27;;;;;;;9.50;8.13;;;;;;;20.12;77.87;101819.28;4947470;28;20199;-42
2023/09/27 08:47:54;;;;;;;10.20;8.10;;;;;;;20.26;77.53;101818.41;4943488;28;20197;-44
2023/09/27 08:50:20;;;;;;;8.02;7.30;;;;;;;20.32;77.19;101830.78;4945836;28;20186;-43
2023/09/27 08:52:48;;;;;;;8.00;7.22;;;;;;;20.13;76.32;101836.50;4945252;28;20231;-43
2023/09/27 08:55:15;;;;;;;8.50;7.60;;;;;;;19.87;76.80;101835.38;4947406;28;20580;-43
2023/09/27 08:57:49;;;;;;;7.20;6.20;;;;;;;20.04;76.02;101824.34;4946602;28;20233;-41
2023/09/27 09:00:19;;;;;;;8.75;7.32;;;;;;;20.19;75.94;101840.69;4949241;28;20178;-42
2023/09/27 09:02:47;;;;;;;7.13;5.78;;;;;;;20.60;76.34;101845.34;4947325;28;20840;-42
2023/09/27 09:05:13;;;;;;;8.05;5.85;;;;;;;20.89;75.95;101838.03;4946197;28;20305;-42
2023/09/27 09:07:42;;;;;;;6.68;5.80;;;;;;;21.11;75.38;101851.13;4946077;28;20202;-43
2023/09/27 09:10:16;;;;;;;6.60;5.93;;;;;;;20.86;74.28;101835.50;4949333;28;20766;-41
2023/09/27 09:12:43;;;;;;;6.80;6.10;;;;;;;20.73;73.46;101828.16;4947266;28;20721;-42
2023/09/27 09:15:15;;;;;;;8.05;6.10;;;;;;;20.89;73.07;101811.66;4947832;28;20583;-41
2023/09/27 09:17:47;;;;;;;34.95;8.27;;;;;;;21.07;73.75;101825.91;4945864;28;20661;-41
2023/09/27 09:20:21;;;;;;;9.57;5.75;;;;;;;21.41;73.01;101845.50;4941023;28;20194;-42
2023/09/27 09:22:50;;;;;;;8.35;4.85;;;;;;;21.52;72.39;101825.69;4950071;28;20222;-41
2023/09/27 09:25:15;;;;;;;6.32;4.75;;;;;;;21.57;72.20;101829.81;4949267;28;20345;-42
2023/09/27 09:27:41;;;;;;;6.90;4.88;;;;;;;21.49;72.20;101834.03;4949466;28;20570;-41
2023/09/27 09:30:11;;;;;;;5.78;4.97;;;;;;;21.71;71.40;101826.16;4948285;28;20190;-41
2023/09/27 09:32:50;;;;;;;6.00;4.43;;;;;;;21.76;70.74;101820.38;4947096;28;20685;-43
2023/09/27 09:35:32;;;;;;;7.75;4.80;;;;;;;21.71;71.24;101815.25;4946015;28;20194;-41
2023/09/27 09:37:59;;;;;;;7.75;4.93;;;;;;;21.56;71.90;101813.59;4950026;28;20220;-42
2023/09/27 09:40:24;;;;;;;9.27;5.22;;;;;;;21.46;71.66;101810.59;4943780;28;20206;-41
2023/09/27 09:42:50;;;;;;;4.85;4.40;;;;;;;21.74;71.79;101817.75;4940332;28;20206;-42
2023/09/27 09:45:16;;;;;;;5.80;5.18;;;;;;;22.09;70.55;101802.59;4949625;28;20216;-40
2023/09/27 09:47:44;;;;;;;6.43;4.95;;;;;;;22.05;68.54;101782.84;4946097;28;20274;-40
2023/09/27 09:50:16;;;;;;;8.18;4.47;;;;;;;21.86;69.06;101790.59;4946727;28;20190;-43
2023/09/27 09:52:59;;;;;;;6.47;5.10;;;;;;;21.58;68.61;101785.22;4946791;28;20203;-43
2023/09/27 09:55:26;;;;;;;5.45;4.45;;;;;;;21.51;69.79;101805.69;4948233;28;20673;-45
2023/09/27 09:58:14;;;;;;;5.78;4.03;;;;;;;21.49;69.79;101812.22;4949489;28;20193;-45
2023/09/27 10:00:48;;;;;;;5.78;4.10;;;;;;;21.63;70.91;101824.94;4948854;28;20691;-43
2023/09/27 10:03:20;;;;;;;4.40;4.00;;;;;;;21.82;70.39;101811.75;4944530;28;20214;-43
2023/09/27 10:05:49;;;;;;;4.82;3.92;;;;;;;21.92;70.65;101818.31;4949548;28;20202;-45
2023/09/27 10:08:17;;;;;;;4.47;3.60;;;;;;;21.66;71.61;101820.13;4949547;28;20221;-45
2023/09/27 10:10:43;;;;;;;6.68;4.68;;;;;;;21.43;71.68;101820.81;4945729;28;20739;-45
2023/09/27 10:13:10;;;;;;;4.70;4.13;;;;;;;21.44;72.54;101825.31;4945588;28;20240;-45
2023/09/27 10:15:38;;;;;;;3.95;3.50;;;;;;;21.84;72.81;101838.91;4948669;28;20238;-46
2023/09/27 10:18:22;;;;;;;5.75;4.35;;;;;;;21.88;71.30;101826.81;4955132;28;20557;-44
2023/09/27 10:21:09;;;;;;;5.47;4.03;;;;;;;22.23;70.82;101826.22;4942882;28;20222;-44
2023/09/27 10:23:46;;;;;;;5.95;4.13;;;;;;;22.24;71.48;101833.41;4945188;28;20709;-44
2023/09/27 10:26:27;;;;;;;5.18;3.67;;;;;;;22.56;71.08;101840.13;4955431;28;20216;-44
2023/09/27 10:29:09;;;;;;;5.72;4.18;;;;;;;22.53;69.95;101815.78;4972387;28;20201;-44
2023/09/27 10:31:37;;;;;;;12.52;4.10;;;;;;;22.34;68.26;101813.50;4949317;28;20677;-43
2023/09/27 10:34:29;;;;;;;5.65;4.38;;;;;;;22.20;68.04;101811.75;4952017;28;20540;-45
2023/09/27 10:37:00;;;;;;;4.43;3.80;;;;;;;22.25;67.59;101813.31;4945201;28;20250;-45
2023/09/27 10:39:26;;;;;;;5.57;3.85;;;;;;;22.12;67.88;101816.03;4951928;28;20698;-45
2023/09/27 10:41:53;;;;;;;8.55;4.68;;;;;;;21.97;68.23;101824.34;4949558;28;20277;-46
2023/09/27 10:44:43;;;;;;;4.50;3.80;;;;;;;22.01;69.12;101824.97;4949122;28;20198;-44
2023/09/27 10:47:09;;;;;;;5.60;3.88;;;;;;;21.88;69.06;101821.38;4947171;28;20198;-45
2023/09/27 10:49:38;;;;;;;6.47;4.22;;;;;;;21.28;69.46;101828.19;4952129;28;20550;-44
2023/09/27 10:52:17;;;;;;;5.20;4.32;;;;;;;21.13;70.29;101832.81;4952933;28;20214;-47
2023/09/27 10:54:44;;;;;;;6.90;4.78;;;;;;;21.09;71.05;101829.41;4950438;28;20707;-44
2023/09/27 10:57:09;;;;;;;8.50;4.32;;;;;;;21.25;71.89;101831.09;4945752;28;20685;-43
2023/09/27 10:59:35;;;;;;;5.78;3.10;;;;;;;21.43;71.74;101827.19;4951823;28;20185;-44
2023/09/27 11:02:03;;;;;;;4.93;3.92;;;;;;;21.60;70.99;101826.00;4954163;28;20227;-44
2023/09/27 11:04:30;;;;;;;7.47;3.60;;;;;;;21.71;70.83;101831.63;4944938;28;20190;-44
2023/09/27 11:06:56;;;;;;;7.18;3.53;;;;;;;21.80;70.69;101835.56;4954261;28;20198;-44
2023/09/27 11:09:23;;;;;;;4.72;3.50;;;;;;;21.85;69.92;101827.03;4946435;28;20185;-45